createdAt,value
2022-09-28T00:04:59.829Z,17.30
2022-09-28T00:10:01.506Z,17.30
2022-09-28T00:15:03.715Z,17.20
2022-09-28T00:20:05.774Z,17.10
2022-09-28T00:25:07.967Z,17.10
2022-09-28T00:30:10.076Z,17.10
2022-09-28T00:35:11.758Z,17.20
2022-09-28T00:40:13.608Z,17.10
2022-09-28T00:45:15.353Z,17.10
2022-09-28T00:50:35.696Z,17.00
2022-09-28T00:55:47.767Z,16.90
2022-09-28T01:00:49.943Z,16.80
2022-09-28T01:05:53.580Z,16.90
2022-09-28T01:10:55.467Z,16.90
2022-09-28T01:16:12.100Z,16.80
2022-09-28T01:21:24.412Z,16.60
2022-09-28T01:26:34.773Z,16.70
2022-09-28T01:31:38.576Z,16.90
2022-09-28T01:36:46.717Z,16.60
2022-09-28T01:41:51.532Z,16.60
2022-09-28T01:46:53.823Z,16.70
2022-09-28T01:52:22.996Z,16.70
2022-09-28T01:57:34.424Z,16.60
2022-09-28T02:03:01.808Z,16.70
2022-09-28T02:08:31.552Z,16.50
2022-09-28T02:13:43.564Z,16.50
2022-09-28T02:18:46.067Z,16.60
2022-09-28T02:23:56.451Z,16.60
2022-09-28T02:28:59.077Z,16.50
2022-09-28T02:34:00.797Z,16.60
2022-09-28T02:39:02.459Z,16.50
2022-09-28T02:44:10.504Z,16.50
2022-09-28T02:49:24.247Z,16.50
2022-09-28T02:54:50.759Z,16.50
2022-09-28T02:59:58.086Z,16.10
2022-09-28T03:05:11.369Z,16.20
2022-09-28T03:10:24.445Z,16.20
2022-09-28T03:15:31.920Z,16.10
2022-09-28T03:20:33.999Z,16.20
2022-09-28T03:25:35.670Z,16.30
2022-09-28T03:30:37.323Z,16.20
2022-09-28T03:35:38.992Z,16.00
2022-09-28T03:40:40.753Z,16.00
2022-09-28T03:45:42.689Z,16.30
2022-09-28T03:50:44.510Z,16.20
2022-09-28T03:55:46.163Z,16.00
2022-09-28T04:00:48.837Z,16.20
2022-09-28T04:05:51.867Z,15.80
2022-09-28T04:10:57.290Z,16.10
2022-09-28T04:16:00.789Z,15.70
2022-09-28T04:21:05.169Z,15.70
2022-09-28T04:26:11.864Z,15.60
2022-09-28T04:31:18.167Z,15.70
2022-09-28T04:36:19.973Z,15.70
2022-09-28T04:41:21.957Z,15.50
2022-09-28T04:46:23.650Z,15.90
2022-09-28T04:51:25.558Z,16.30
2022-09-28T04:56:27.248Z,16.10
2022-09-28T05:01:28.957Z,15.70
2022-09-28T05:06:30.668Z,16.00
2022-09-28T05:11:32.375Z,16.00
2022-09-28T05:16:34.121Z,15.90
2022-09-28T05:21:35.811Z,16.10
2022-09-28T05:26:37.985Z,16.30
2022-09-28T05:31:39.724Z,16.30
2022-09-28T05:36:41.554Z,16.40
2022-09-28T05:41:43.256Z,16.40
2022-09-28T05:46:44.952Z,16.40
2022-09-28T05:51:46.594Z,16.20
2022-09-28T05:56:48.293Z,16.10
2022-09-28T06:01:49.974Z,16.20
2022-09-28T06:06:51.681Z,16.00
2022-09-28T06:11:53.370Z,16.10
2022-09-28T06:16:55.119Z,16.30
2022-09-28T06:21:59.285Z,16.40
2022-09-28T06:27:01.148Z,16.50
2022-09-28T06:32:02.826Z,16.30
2022-09-28T06:37:04.715Z,16.60
2022-09-28T06:42:06.373Z,16.80
2022-09-28T06:47:08.049Z,16.50
2022-09-28T06:52:09.718Z,16.60
2022-09-28T06:57:11.429Z,16.70
2022-09-28T07:02:13.552Z,16.60
2022-09-28T07:07:15.312Z,16.60
2022-09-28T07:12:16.998Z,16.80
2022-09-28T07:17:18.716Z,17.00
2022-09-28T07:22:33.146Z,17.10
2022-09-28T07:27:36.397Z,17.20
2022-09-28T07:32:38.069Z,17.30
2022-09-28T07:37:39.877Z,17.40
2022-09-28T07:42:41.527Z,17.50
2022-09-28T07:47:43.208Z,17.40
2022-09-28T07:52:44.918Z,17.40
2022-09-28T07:57:46.606Z,17.40
2022-09-28T08:02:48.415Z,17.40
2022-09-28T08:07:50.166Z,17.50
2022-09-28T08:13:02.037Z,17.50
2022-09-28T08:18:05.159Z,17.60
2022-09-28T08:23:08.315Z,17.80
2022-09-28T08:28:10.070Z,17.80
2022-09-28T08:33:13.560Z,17.80
2022-09-28T08:38:15.549Z,18.00
2022-09-28T08:43:45.196Z,18.20
2022-09-28T08:49:20.529Z,18.30
2022-09-28T08:54:36.678Z,18.30
2022-09-28T08:59:46.899Z,18.50
2022-09-28T09:04:49.446Z,18.60
2022-09-28T09:10:08.945Z,18.90
2022-09-28T09:15:28.515Z,19.10
2022-09-28T09:20:45.670Z,19.70
2022-09-28T09:25:54.300Z,19.90
2022-09-28T09:31:46.255Z,20.10
2022-09-28T09:37:21.028Z,20.40
2022-09-28T09:42:52.275Z,20.70
2022-09-28T09:48:04.286Z,20.80
2022-09-28T09:53:18.561Z,20.40
2022-09-28T09:58:32.599Z,19.90
2022-09-28T10:03:38.891Z,20.40
2022-09-28T10:08:50.227Z,20.90
2022-09-28T10:13:51.963Z,21.10
2022-09-28T10:18:53.674Z,20.90
2022-09-28T10:24:00.538Z,20.60
2022-09-28T10:29:04.939Z,20.70
2022-09-28T10:34:08.957Z,21.50
2022-09-28T10:39:33.646Z,21.90
2022-09-28T10:44:56.826Z,20.90
2022-09-28T10:50:01.287Z,20.90
2022-09-28T10:55:30.841Z,21.00
2022-09-28T11:00:43.173Z,20.90
2022-09-28T11:06:03.730Z,20.90
2022-09-28T11:11:11.595Z,20.80
2022-09-28T11:16:39.489Z,20.80
2022-09-28T11:21:43.371Z,20.90
2022-09-28T11:26:51.020Z,21.10
2022-09-28T11:31:53.209Z,20.60
2022-09-28T11:37:07.949Z,20.60
2022-09-28T11:42:50.511Z,20.50
2022-09-28T11:47:55.198Z,20.80
2022-09-28T11:53:14.423Z,21.20
2022-09-28T11:58:48.856Z,21.10
2022-09-28T12:03:57.383Z,21.10
2022-09-28T12:09:06.922Z,21.40
2022-09-28T12:14:26.234Z,21.30
2022-09-28T12:19:47.484Z,21.30
2022-09-28T12:24:56.376Z,21.10
2022-09-28T12:30:17.392Z,21.10
2022-09-28T12:35:31.148Z,20.90
2022-09-28T12:40:36.144Z,21.10
2022-09-28T12:46:09.966Z,21.40
2022-09-28T12:51:42.995Z,21.30
2022-09-28T12:56:56.375Z,21.20
2022-09-28T13:02:04.091Z,21.00
2022-09-28T13:07:22.150Z,20.90
2022-09-28T13:12:53.367Z,20.70
2022-09-28T13:18:10.842Z,20.40
2022-09-28T13:23:12.521Z,20.50
2022-09-28T13:28:16.037Z,20.40
2022-09-28T13:33:25.747Z,20.60
2022-09-28T13:38:27.359Z,20.70
2022-09-28T13:43:36.436Z,20.60
2022-09-28T13:48:59.065Z,20.50
2022-09-28T13:54:10.728Z,20.40
2022-09-28T13:59:24.812Z,20.30
2022-09-28T14:05:00.494Z,20.40
2022-09-28T14:10:21.834Z,20.50
2022-09-28T14:15:29.526Z,20.80
2022-09-28T14:20:31.501Z,21.20
2022-09-28T14:25:36.388Z,21.30
2022-09-28T14:30:38.088Z,21.20
2022-09-28T14:35:41.341Z,21.00
2022-09-28T14:40:51.875Z,20.70
2022-09-28T14:46:08.639Z,20.70
2022-09-28T14:51:25.697Z,21.20
2022-09-28T14:56:32.758Z,21.30
2022-09-28T15:01:36.206Z,21.10
2022-09-28T15:06:48.439Z,20.60
2022-09-28T15:11:50.178Z,20.70
2022-09-28T15:16:51.871Z,20.80
2022-09-28T15:21:53.570Z,20.70
2022-09-28T15:26:55.485Z,20.50
2022-09-28T15:31:58.415Z,20.30
2022-09-28T15:37:00.248Z,20.00
2022-09-28T15:42:01.972Z,20.00
2022-09-28T15:47:16.705Z,19.70
2022-09-28T15:52:43.247Z,19.60
2022-09-28T15:57:45.014Z,19.50
2022-09-28T16:03:18.247Z,19.40
2022-09-28T16:08:44.649Z,19.40
2022-09-28T16:14:00.101Z,19.40
2022-09-28T16:19:02.962Z,19.30
2022-09-28T16:24:07.734Z,19.10
2022-09-28T16:29:28.158Z,19.20
2022-09-28T16:34:30.188Z,19.10
2022-09-28T16:39:32.453Z,19.10
2022-09-28T16:44:34.374Z,19.20
2022-09-28T16:49:39.635Z,19.30
2022-09-28T16:54:41.301Z,19.20
2022-09-28T16:59:42.983Z,19.30
2022-09-28T17:04:47.706Z,19.30
2022-09-28T17:09:49.679Z,19.10
2022-09-28T17:14:51.351Z,19.20
2022-09-28T17:19:53.306Z,19.20
2022-09-28T17:24:54.979Z,19.00
2022-09-28T17:29:56.891Z,19.10
2022-09-28T17:35:22.585Z,18.90
2022-09-28T17:40:27.737Z,18.80
2022-09-28T17:45:30.088Z,18.80
2022-09-28T17:50:36.237Z,18.70
2022-09-28T17:55:38.772Z,18.70
2022-09-28T18:00:41.086Z,18.90
2022-09-28T18:05:47.960Z,18.90
2022-09-28T18:10:57.720Z,18.70
2022-09-28T18:15:59.455Z,18.40
2022-09-28T18:21:03.454Z,18.30
2022-09-28T18:26:11.575Z,18.20
2022-09-28T18:31:16.770Z,17.90
2022-09-28T18:36:19.156Z,17.90
2022-09-28T18:41:21.352Z,17.90
2022-09-28T18:46:23.068Z,18.10
2022-09-28T18:51:27.888Z,18.20
2022-09-28T18:56:32.219Z,18.30
2022-09-28T19:01:37.908Z,18.20
2022-09-28T19:06:43.560Z,18.20
2022-09-28T19:11:47.454Z,17.90
2022-09-28T19:16:49.624Z,17.90
2022-09-28T19:21:51.992Z,17.90
2022-09-28T19:26:54.233Z,18.00
2022-09-28T19:31:56.528Z,17.80
2022-09-28T19:36:59.983Z,17.90
2022-09-28T19:42:02.878Z,17.70
2022-09-28T19:47:07.940Z,18.00
2022-09-28T19:52:14.785Z,17.90
2022-09-28T19:57:17.260Z,17.80
2022-09-28T20:02:19.282Z,17.90
2022-09-28T20:07:21.947Z,17.90
2022-09-28T20:12:24.743Z,18.00
2022-09-28T20:17:26.899Z,17.90
2022-09-28T20:22:30.754Z,17.70
2022-09-28T20:27:32.475Z,17.60
2022-09-28T20:32:34.830Z,17.60
2022-09-28T20:37:37.085Z,17.70
2022-09-28T20:42:38.757Z,17.70
2022-09-28T20:47:41.579Z,17.60
2022-09-28T20:52:43.260Z,17.50
2022-09-28T20:57:45.552Z,17.40
2022-09-28T21:02:53.986Z,17.10
2022-09-28T21:07:59.610Z,17.50
2022-09-28T21:13:01.353Z,17.60
2022-09-28T21:18:04.798Z,17.50
2022-09-28T21:23:07.141Z,17.60
2022-09-28T21:28:11.080Z,17.40
2022-09-28T21:33:12.722Z,17.10
2022-09-28T21:38:15.896Z,17.10
2022-09-28T21:43:17.972Z,17.00
2022-09-28T21:48:22.880Z,17.10
2022-09-28T21:53:26.266Z,16.90
2022-09-28T21:58:31.508Z,16.90
2022-09-28T22:03:35.762Z,16.90
2022-09-28T22:08:38.273Z,17.00
2022-09-28T22:13:41.436Z,17.10
2022-09-28T22:18:43.471Z,17.20
2022-09-28T22:23:45.586Z,17.40
2022-09-28T22:28:50.189Z,17.30
2022-09-28T22:33:52.212Z,17.30
2022-09-28T22:38:57.541Z,17.30
2022-09-28T22:43:59.658Z,17.40
2022-09-28T22:49:01.415Z,17.40
2022-09-28T22:54:03.099Z,17.40
2022-09-28T22:59:04.755Z,17.40
2022-09-28T23:04:08.898Z,17.20
2022-09-28T23:09:10.590Z,16.90
2022-09-28T23:14:12.303Z,17.00
2022-09-28T23:19:14.086Z,17.10
2022-09-28T23:24:15.897Z,17.20
2022-09-28T23:29:17.541Z,17.00
2022-09-28T23:34:19.324Z,16.40
2022-09-28T23:39:21.003Z,16.40
2022-09-28T23:44:22.670Z,16.20
2022-09-28T23:49:24.340Z,16.20
2022-09-28T23:54:26.022Z,16.30
2022-09-28T23:59:27.755Z,16.10
